createdAt,value
2023-04-18T00:01:23.103Z,99049.09
2023-04-18T00:03:50.810Z,99040.19
2023-04-18T00:06:17.616Z,99042.31
2023-04-18T00:08:43.965Z,99034.50
2023-04-18T00:11:10.804Z,99036.94
2023-04-18T00:13:38.486Z,99038.00
2023-04-18T00:16:05.941Z,99035.56
2023-04-18T00:18:32.982Z,99025.31
2023-04-18T00:20:59.432Z,99032.31
2023-04-18T00:23:27.958Z,99024.72
2023-04-18T00:25:54.401Z,99033.94
2023-04-18T00:28:20.881Z,99025.31
2023-04-18T00:30:47.322Z,99022.59
2023-04-18T00:33:13.745Z,99022.06
2023-04-18T00:35:40.296Z,99025.56
2023-04-18T00:38:06.883Z,99024.47
2023-04-18T00:40:33.412Z,99018.81
2023-04-18T00:43:00.598Z,99013.69
2023-04-18T00:45:27.008Z,99018.53
2023-04-18T00:47:53.490Z,99015.56
2023-04-18T00:50:20.563Z,99011.81
2023-04-18T00:52:47.434Z,99012.84
2023-04-18T00:55:13.983Z,99017.19
2023-04-18T00:57:40.704Z,99005.03
2023-04-18T01:00:10.476Z,99010.16
2023-04-18T01:02:38.341Z,99008.28
2023-04-18T01:05:06.073Z,99009.88
2023-04-18T01:07:34.897Z,98999.88
2023-04-18T01:10:02.171Z,98996.09
2023-04-18T01:12:28.578Z,98986.91
2023-04-18T01:14:55.200Z,98993.66
2023-04-18T01:17:23.246Z,98988.53
2023-04-18T01:19:49.828Z,98995.00
2023-04-18T01:22:17.234Z,98989.09
2023-04-18T01:24:43.621Z,98986.66
2023-04-18T01:27:13.851Z,98988.78
2023-04-18T01:29:41.145Z,98978.53
2023-04-18T01:32:07.753Z,98977.19
2023-04-18T01:34:34.267Z,98973.38
2023-04-18T01:37:00.806Z,98972.28
2023-04-18T01:39:28.145Z,98969.88
2023-04-18T01:41:54.628Z,98976.06
2023-04-18T01:44:21.186Z,98973.94
2023-04-18T01:46:47.660Z,98966.34
2023-04-18T01:49:14.194Z,98972.03
2023-04-18T01:51:40.931Z,98976.63
2023-04-18T01:54:07.387Z,98972.31
2023-04-18T01:56:33.826Z,98962.03
2023-04-18T01:59:00.381Z,98965.25
2023-04-18T02:01:27.011Z,98960.66
2023-04-18T02:03:53.724Z,98960.13
2023-04-18T02:06:20.719Z,98956.09
2023-04-18T02:08:47.150Z,98956.34
2023-04-18T02:11:13.578Z,98961.44
2023-04-18T02:13:40.079Z,98956.06
2023-04-18T02:16:11.519Z,98962.53
2023-04-18T02:18:40.091Z,98969.03
2023-04-18T02:21:07.313Z,98958.75
2023-04-18T02:23:33.709Z,98967.66
2023-04-18T02:26:00.199Z,98967.66
2023-04-18T02:28:26.559Z,98974.38
2023-04-18T02:30:53.012Z,98972.22
2023-04-18T02:33:19.402Z,98970.84
2023-04-18T02:35:45.785Z,98965.19
2023-04-18T02:38:13.774Z,98965.72
2023-04-18T02:40:40.205Z,98972.19
2023-04-18T02:43:06.726Z,98962.19
2023-04-18T02:45:33.209Z,98957.34
2023-04-18T02:47:59.687Z,98960.28
2023-04-18T02:50:26.896Z,98965.41
2023-04-18T02:52:53.457Z,98958.66
2023-04-18T02:55:20.960Z,98961.06
2023-04-18T02:57:47.950Z,98960.25
2023-04-18T03:00:14.769Z,98957.00
2023-04-18T03:02:41.510Z,98959.44
2023-04-18T03:05:08.157Z,98959.44
2023-04-18T03:07:34.537Z,98961.91
2023-04-18T03:10:00.915Z,98960.50
2023-04-18T03:12:27.347Z,98963.22
2023-04-18T03:14:53.768Z,98967.00
2023-04-18T03:17:20.546Z,98953.22
2023-04-18T03:19:46.953Z,98954.59
2023-04-18T03:22:14.197Z,98956.47
2023-04-18T03:24:40.837Z,98963.75
2023-04-18T03:27:07.469Z,98959.69
2023-04-18T03:29:34.121Z,98958.59
2023-04-18T03:32:00.610Z,98957.00
2023-04-18T03:34:27.082Z,98959.66
2023-04-18T03:36:53.975Z,98967.22
2023-04-18T03:39:20.537Z,98967.75
2023-04-18T03:41:46.943Z,98960.97
2023-04-18T03:44:13.601Z,98965.06
2023-04-18T03:46:40.647Z,98967.47
2023-04-18T03:49:07.141Z,98968.84
2023-04-18T03:51:42.016Z,98964.50
2023-04-18T03:54:08.477Z,98964.50
2023-04-18T03:56:35.703Z,98968.25
2023-04-18T03:59:02.135Z,98965.00
2023-04-18T04:01:28.768Z,98967.97
2023-04-18T04:03:55.219Z,98972.03
2023-04-18T04:06:21.953Z,98966.91
2023-04-18T04:08:48.440Z,98969.34
2023-04-18T04:11:14.947Z,98971.72
2023-04-18T04:13:41.284Z,98971.19
2023-04-18T04:16:08.017Z,98976.09
2023-04-18T04:18:34.539Z,98967.97
2023-04-18T04:21:01.063Z,98970.63
2023-04-18T04:23:27.571Z,98969.00
2023-04-18T04:25:54.888Z,98970.34
2023-04-18T04:28:26.334Z,98967.06
2023-04-18T04:30:53.126Z,98967.59
2023-04-18T04:33:20.410Z,98972.13
2023-04-18T04:35:47.222Z,98973.72
2023-04-18T04:38:15.350Z,98972.41
2023-04-18T04:40:42.578Z,98970.25
2023-04-18T04:43:12.597Z,98976.75
2023-04-18T04:45:42.188Z,98983.50
2023-04-18T04:48:10.027Z,98973.50
2023-04-18T04:50:40.546Z,98984.25
2023-04-18T04:53:07.281Z,98982.16
2023-04-18T04:55:34.543Z,98976.47
2023-04-18T04:58:00.936Z,98986.47
2023-04-18T05:00:28.773Z,98982.72
2023-04-18T05:02:57.004Z,98974.38
2023-04-18T05:05:23.462Z,98985.97
2023-04-18T05:07:50.476Z,98988.66
2023-04-18T05:10:17.064Z,98984.84
2023-04-18T05:12:43.532Z,98976.22
2023-04-18T05:15:10.454Z,98983.22
2023-04-18T05:17:36.909Z,98980.59
2023-04-18T05:20:04.241Z,98987.63
2023-04-18T05:22:30.636Z,98987.38
2023-04-18T05:24:57.124Z,98988.22
2023-04-18T05:27:23.726Z,98991.78
2023-04-18T05:29:50.246Z,98986.66
2023-04-18T05:32:16.807Z,98996.97
2023-04-18T05:34:43.398Z,98991.59
2023-04-18T05:37:09.932Z,98992.94
2023-04-18T05:39:36.489Z,98995.91
2023-04-18T05:42:03.325Z,98991.88
2023-04-18T05:44:30.203Z,98997.31
2023-04-18T05:46:56.733Z,98990.53
2023-04-18T05:49:23.688Z,98997.00
2023-04-18T05:51:50.573Z,98998.09
2023-04-18T05:54:17.147Z,99001.31
2023-04-18T05:56:43.662Z,99004.03
2023-04-18T05:59:10.464Z,99001.34
2023-04-18T06:01:36.991Z,99011.06
2023-04-18T06:04:03.678Z,99007.84
2023-04-18T06:06:31.459Z,99011.63
2023-04-18T06:08:58.027Z,99012.19
2023-04-18T06:11:24.433Z,99007.91
2023-04-18T06:13:50.972Z,99018.44
2023-04-18T06:16:17.419Z,99013.81
2023-04-18T06:18:43.921Z,99017.03
2023-04-18T06:21:10.323Z,99011.13
2023-04-18T06:23:38.446Z,99015.44
2023-04-18T06:26:06.086Z,99015.44
2023-04-18T06:28:32.480Z,99030.06
2023-04-18T06:30:59.001Z,99009.56
2023-04-18T06:33:25.580Z,99017.69
2023-04-18T06:35:52.761Z,99019.31
2023-04-18T06:38:19.345Z,99021.72
2023-04-18T06:40:47.103Z,99020.91
2023-04-18T06:43:13.541Z,99025.25
2023-04-18T06:45:40.255Z,99021.72
2023-04-18T06:48:08.974Z,99025.81
2023-04-18T06:50:35.473Z,99022.31
2023-04-18T06:53:02.197Z,99026.38
2023-04-18T06:55:28.611Z,99020.69
2023-04-18T06:57:55.020Z,99023.38
2023-04-18T07:00:21.823Z,99021.22
2023-04-18T07:02:48.649Z,99022.56
2023-04-18T07:05:15.196Z,99026.09
2023-04-18T07:07:41.647Z,99026.38
2023-04-18T07:10:09.822Z,99030.16
2023-04-18T07:12:36.384Z,99032.34
2023-04-18T07:15:03.790Z,99031.25
2023-04-18T07:17:30.418Z,99025.28
2023-04-18T07:19:56.832Z,99029.63
2023-04-18T07:22:23.237Z,99041.28
2023-04-18T07:24:49.678Z,99038.81
2023-04-18T07:27:16.148Z,99037.22
2023-04-18T07:29:42.592Z,99033.44
2023-04-18T07:32:09.049Z,99037.78
2023-04-18T07:34:36.056Z,99042.66
2023-04-18T07:37:02.475Z,99039.38
2023-04-18T07:39:28.902Z,99036.97
2023-04-18T07:41:55.402Z,99041.53
2023-04-18T07:44:21.893Z,99039.94
2023-04-18T07:46:48.385Z,99044.81
2023-04-18T07:49:16.241Z,99034.81
2023-04-18T07:51:42.859Z,99036.66
2023-04-18T07:54:11.039Z,99035.06
2023-04-18T07:56:37.418Z,99036.66
2023-04-18T07:59:03.774Z,99035.03
2023-04-18T08:01:30.992Z,99035.56
2023-04-18T08:04:01.461Z,99031.22
2023-04-18T08:06:29.072Z,99045.25
2023-04-18T08:08:55.675Z,99035.53
2023-04-18T08:11:22.158Z,99029.53
2023-04-18T08:13:48.603Z,99041.97
2023-04-18T08:16:17.269Z,99032.19
2023-04-18T08:18:44.189Z,99035.91
2023-04-18T08:21:10.689Z,99034.75
2023-04-18T08:23:37.094Z,99037.34
2023-04-18T08:26:03.524Z,99039.25
2023-04-18T08:28:30.063Z,99039.28
2023-04-18T08:30:56.652Z,99050.97
2023-04-18T08:33:23.734Z,99055.03
2023-04-18T08:35:53.159Z,99047.47
2023-04-18T08:38:19.949Z,99053.41
2023-04-18T08:40:47.144Z,99048.28
2023-04-18T08:43:15.098Z,99049.28
2023-04-18T08:45:42.881Z,99052.78
2023-04-18T08:48:13.749Z,99044.81
2023-04-18T08:50:41.417Z,99049.03
2023-04-18T08:53:08.615Z,99052.03
2023-04-18T08:55:35.746Z,99053.69
2023-04-18T08:58:04.776Z,99056.19
2023-04-18T09:00:31.207Z,99057.59
2023-04-18T09:02:58.247Z,99066.59
2023-04-18T09:05:26.938Z,99061.22
2023-04-18T09:07:56.289Z,99054.16
2023-04-18T09:10:33.587Z,99061.72
2023-04-18T09:13:03.076Z,99057.63
2023-04-18T09:15:30.090Z,99061.44
2023-04-18T09:17:58.920Z,99061.16
2023-04-18T09:20:43.837Z,99055.44
2023-04-18T09:23:14.346Z,99060.03
2023-04-18T09:25:49.160Z,99067.06
2023-04-18T09:28:23.420Z,99060.00
2023-04-18T09:30:54.185Z,99061.03
2023-04-18T09:33:34.276Z,99063.69
2023-04-18T09:36:27.952Z,99059.53
2023-04-18T09:38:56.665Z,99061.34
2023-04-18T09:41:24.101Z,99059.41
2023-04-18T09:44:07.518Z,99059.06
2023-04-18T09:46:33.959Z,99070.38
2023-04-18T09:49:00.967Z,99073.03
2023-04-18T09:51:28.511Z,99066.47
2023-04-18T09:53:55.240Z,99057.16
2023-04-18T09:56:27.669Z,99063.50
2023-04-18T09:59:04.780Z,99056.91
2023-04-18T10:01:31.756Z,99057.88
2023-04-18T10:04:02.236Z,99052.66
2023-04-18T10:06:30.219Z,99051.34
2023-04-18T10:08:57.100Z,99053.25
2023-04-18T10:11:24.403Z,99055.22
2023-04-18T10:13:55.846Z,99052.03
2023-04-18T10:16:22.771Z,99046.31
2023-04-18T10:18:50.672Z,99052.50
2023-04-18T10:21:17.172Z,99045.34
2023-04-18T10:23:43.666Z,99043.31
2023-04-18T10:26:11.188Z,99033.56
2023-04-18T10:28:57.235Z,99042.84
2023-04-18T10:31:28.854Z,99034.56
2023-04-18T10:36:28.314Z,99039.47
2023-04-18T10:39:19.176Z,99042.47
2023-04-18T10:41:51.001Z,99041.06
2023-04-18T10:44:19.790Z,99043.00
2023-04-18T10:47:06.431Z,99035.63
2023-04-18T10:49:33.116Z,99036.16
2023-04-18T10:52:01.288Z,99033.66
2023-04-18T10:54:51.152Z,99034.25
2023-04-18T10:57:17.742Z,99025.50
2023-04-18T10:59:50.531Z,99021.88
2023-04-18T11:02:32.205Z,99023.25
2023-04-18T11:05:03.293Z,99012.72
2023-04-18T11:07:46.147Z,99016.25
2023-04-18T11:10:13.422Z,99020.16
2023-04-18T11:12:41.299Z,99014.41
2023-04-18T11:15:21.446Z,99017.06
2023-04-18T11:18:04.703Z,99008.88
2023-04-18T11:20:47.886Z,99011.25
2023-04-18T11:23:21.404Z,99011.50
2023-04-18T11:25:54.545Z,99017.50
2023-04-18T11:28:22.323Z,99005.13
2023-04-18T11:30:48.843Z,99007.13
2023-04-18T11:33:16.583Z,99009.34
2023-04-18T11:35:47.117Z,99002.47
2023-04-18T11:38:15.840Z,99006.75
2023-04-18T11:40:51.578Z,99003.81
2023-04-18T11:43:22.826Z,99009.84
2023-04-18T11:45:59.592Z,98997.03
2023-04-18T11:48:40.128Z,99002.72
2023-04-18T11:51:07.705Z,99003.97
2023-04-18T11:53:35.927Z,99005.00
2023-04-18T11:56:03.687Z,99005.88
2023-04-18T11:58:32.220Z,99010.56
2023-04-18T12:00:59.254Z,99003.28
2023-04-18T12:03:27.438Z,99014.72
2023-04-18T12:06:03.505Z,99008.00
2023-04-18T12:08:32.034Z,99004.47
2023-04-18T12:10:58.533Z,99015.00
2023-04-18T12:13:26.923Z,99010.06
2023-04-18T12:15:54.415Z,99009.47
2023-04-18T12:18:21.452Z,99002.84
2023-04-18T12:20:50.360Z,99002.47
2023-04-18T12:23:32.500Z,98998.41
2023-04-18T12:26:03.891Z,98995.56
2023-04-18T12:28:31.019Z,98993.53
2023-04-18T12:30:57.871Z,98989.28
2023-04-18T12:33:24.621Z,98988.91
2023-04-18T12:35:52.772Z,98987.94
2023-04-18T12:38:23.670Z,98991.47
2023-04-18T12:40:51.344Z,98990.88
2023-04-18T12:43:18.555Z,98992.09
2023-04-18T12:45:49.418Z,98990.69
2023-04-18T12:48:15.924Z,98982.63
2023-04-18T12:50:42.328Z,98985.06
2023-04-18T12:53:08.729Z,98982.06
2023-04-18T12:55:35.965Z,98990.97
2023-04-18T12:58:02.500Z,98984.50
2023-04-18T13:00:31.745Z,98988.03
2023-04-18T13:02:58.738Z,98985.38
2023-04-18T13:05:29.919Z,98983.34
2023-04-18T13:08:15.090Z,98988.38
2023-04-18T13:10:43.249Z,98973.22
2023-04-18T13:13:09.706Z,98984.31
2023-04-18T13:15:36.275Z,98982.94
2023-04-18T13:18:05.950Z,98979.22
2023-04-18T13:20:33.521Z,98988.81
2023-04-18T13:23:00.179Z,98983.72
2023-04-18T13:25:27.757Z,98979.22
2023-04-18T13:27:54.248Z,98991.00
2023-04-18T13:30:21.108Z,98987.94
2023-04-18T13:32:47.627Z,98986.06
2023-04-18T13:35:14.116Z,98989.91
2023-04-18T13:37:40.615Z,98989.88
2023-04-18T13:40:07.985Z,98985.53
2023-04-18T13:42:36.385Z,98983.28
2023-04-18T13:45:04.345Z,98984.41
2023-04-18T13:47:31.422Z,98988.09
2023-04-18T13:49:58.808Z,98985.22
2023-04-18T13:52:26.935Z,98986.06
2023-04-18T13:54:53.396Z,98984.47
2023-04-18T13:57:19.905Z,98994.00
2023-04-18T13:59:46.779Z,98991.56
2023-04-18T14:02:13.380Z,98992.75
2023-04-18T14:04:39.894Z,98997.78
2023-04-18T14:07:07.919Z,98993.34
2023-04-18T14:09:34.664Z,98985.66
2023-04-18T14:12:02.018Z,98992.72
2023-04-18T14:14:28.469Z,98994.97
2023-04-18T14:16:54.959Z,98986.28
2023-04-18T14:19:21.596Z,98993.03
2023-04-18T14:21:50.950Z,98991.66
2023-04-18T14:24:17.589Z,98992.16
2023-04-18T14:26:44.092Z,98990.91
2023-04-18T14:29:11.140Z,98996.38
2023-04-18T14:31:37.578Z,98984.34
2023-04-18T14:34:04.166Z,98992.53
2023-04-18T14:36:31.732Z,98991.09
2023-04-18T14:38:59.109Z,98985.38
2023-04-18T14:41:25.559Z,98992.91
2023-04-18T14:43:52.011Z,98987.16
2023-04-18T14:46:18.521Z,98985.22
2023-04-18T14:48:46.650Z,98986.56
2023-04-18T14:51:15.296Z,98984.00
2023-04-18T14:53:41.864Z,98985.13
2023-04-18T14:56:08.341Z,98991.91
2023-04-18T14:58:34.849Z,98984.25
2023-04-18T15:01:01.287Z,98980.56
2023-04-18T15:03:27.940Z,98981.28
2023-04-18T15:05:55.055Z,98990.56
2023-04-18T15:08:21.989Z,98980.78
2023-04-18T15:10:48.446Z,98990.09
2023-04-18T15:13:14.914Z,98983.19
2023-04-18T15:15:41.410Z,98992.81
2023-04-18T15:18:08.525Z,98989.38
2023-04-18T15:20:36.981Z,98985.06
2023-04-18T15:23:03.601Z,98987.03
2023-04-18T15:25:30.620Z,98996.00
2023-04-18T15:27:58.225Z,98980.66
2023-04-18T15:30:25.186Z,98988.75
2023-04-18T15:32:52.135Z,98996.00
2023-04-18T15:35:18.833Z,98990.25
2023-04-18T15:37:45.483Z,98996.41
2023-04-18T15:40:16.067Z,98991.03
2023-04-18T15:42:43.525Z,98993.84
2023-04-18T15:45:10.868Z,99001.00
2023-04-18T15:47:38.481Z,99002.13
2023-04-18T15:50:05.614Z,99002.13
2023-04-18T15:52:32.135Z,99007.03
2023-04-18T15:54:58.726Z,99002.41
2023-04-18T15:57:25.229Z,98998.06
2023-04-18T15:59:54.378Z,99001.28
2023-04-18T16:02:20.965Z,99006.97
2023-04-18T16:04:47.494Z,99010.47
2023-04-18T16:07:14.096Z,98999.81
2023-04-18T16:09:40.602Z,99006.06
2023-04-18T16:12:08.160Z,99007.97
2023-04-18T16:14:34.789Z,99011.28
2023-04-18T16:17:01.306Z,99011.91
2023-04-18T16:19:27.744Z,99013.59
2023-04-18T16:21:54.242Z,99009.34
2023-04-18T16:24:20.768Z,99025.19
2023-04-18T16:26:48.028Z,99028.44
2023-04-18T16:29:14.522Z,99027.13
2023-04-18T16:31:42.583Z,99023.69
2023-04-18T16:34:09.488Z,99025.91
2023-04-18T16:36:36.024Z,99021.06
2023-04-18T16:39:02.450Z,99025.47
2023-04-18T16:41:30.299Z,99027.69
2023-04-18T16:43:57.148Z,99032.59
2023-04-18T16:46:23.827Z,99027.75
2023-04-18T16:48:52.331Z,99032.41
2023-04-18T16:51:19.161Z,99032.97
2023-04-18T16:53:46.695Z,99031.66
2023-04-18T16:56:13.134Z,99023.28
2023-04-18T16:58:39.557Z,99038.28
2023-04-18T17:01:08.070Z,99024.69
2023-04-18T17:03:34.747Z,99035.06
2023-04-18T17:06:01.680Z,99036.16
2023-04-18T17:08:32.862Z,99039.16
2023-04-18T17:10:59.657Z,99041.69
2023-04-18T17:13:27.250Z,99047.13
2023-04-18T17:15:53.958Z,99033.00
2023-04-18T17:18:20.456Z,99036.81
2023-04-18T17:20:46.811Z,99033.00
2023-04-18T17:23:13.376Z,99038.72
2023-04-18T17:25:39.765Z,99042.25
2023-04-18T17:28:06.275Z,99043.09
2023-04-18T17:30:32.691Z,99044.47
2023-04-18T17:32:59.106Z,99042.03
2023-04-18T17:35:25.636Z,99043.44
2023-04-18T17:37:52.822Z,99034.75
2023-04-18T17:40:19.210Z,99042.41
2023-04-18T17:42:45.592Z,99048.44
2023-04-18T17:45:12.050Z,99054.47
2023-04-18T17:47:38.786Z,99039.53
2023-04-18T17:50:05.848Z,99054.47
2023-04-18T17:52:32.539Z,99058.28
2023-04-18T17:54:59.678Z,99053.94
2023-04-18T17:57:26.678Z,99053.41
2023-04-18T17:59:55.428Z,99050.78
2023-04-18T18:02:23.449Z,99062.22
2023-04-18T18:04:50.058Z,99062.03
2023-04-18T18:07:16.652Z,99059.34
2023-04-18T18:09:43.121Z,99063.47
2023-04-18T18:12:12.484Z,99068.97
2023-04-18T18:14:40.480Z,99069.84
2023-04-18T18:17:07.086Z,99067.72
2023-04-18T18:19:36.083Z,99077.22
2023-04-18T18:22:02.642Z,99084.56
2023-04-18T18:24:29.040Z,99077.88
2023-04-18T18:26:56.238Z,99086.63
2023-04-18T18:29:22.697Z,99087.19
2023-04-18T18:31:49.224Z,99092.63
2023-04-18T18:34:15.718Z,99090.19
2023-04-18T18:36:42.262Z,99092.91
2023-04-18T18:39:08.758Z,99097.31
2023-04-18T18:41:35.478Z,99101.91
2023-04-18T18:44:01.892Z,99099.78
2023-04-18T18:46:28.348Z,99105.50
2023-04-18T18:48:54.795Z,99100.63
2023-04-18T18:51:21.217Z,99116.13
2023-04-18T18:53:47.660Z,99116.13
2023-04-18T18:56:14.647Z,99118.34
2023-04-18T18:58:43.310Z,99120.53
2023-04-18T19:01:11.518Z,99115.63
2023-04-18T19:03:38.569Z,99121.63
2023-04-18T19:06:07.013Z,99121.06
2023-04-18T19:08:33.782Z,99126.28
2023-04-18T19:11:00.252Z,99129.28
2023-04-18T19:13:26.646Z,99130.63
2023-04-18T19:15:53.623Z,99132.84
2023-04-18T19:18:20.379Z,99130.41
2023-04-18T19:20:47.221Z,99133.41
2023-04-18T19:23:13.711Z,99126.34
2023-04-18T19:25:40.272Z,99129.94
2023-04-18T19:28:06.725Z,99130.50
2023-04-18T19:30:34.737Z,99133.50
2023-04-18T19:33:01.138Z,99137.59
2023-04-18T19:35:27.691Z,99136.75
2023-04-18T19:38:01.388Z,99137.63
2023-04-18T19:40:28.892Z,99141.97
2023-04-18T19:42:56.594Z,99137.94
2023-04-18T19:45:24.435Z,99143.63
2023-04-18T19:47:50.990Z,99140.38
2023-04-18T19:50:17.986Z,99136.59
2023-04-18T19:52:44.405Z,99144.75
2023-04-18T19:55:11.090Z,99141.50
2023-04-18T19:57:41.366Z,99149.66
2023-04-18T20:00:09.294Z,99146.72
2023-04-18T20:02:36.695Z,99140.72
2023-04-18T20:05:04.912Z,99147.03
2023-04-18T20:07:31.660Z,99145.94
2023-04-18T20:09:58.170Z,99156.28
2023-04-18T20:12:24.753Z,99157.88
2023-04-18T20:14:51.895Z,99153.28
2023-04-18T20:17:18.498Z,99159.25
2023-04-18T20:19:47.054Z,99157.34
2023-04-18T20:22:14.837Z,99154.09
2023-04-18T20:24:41.654Z,99153.59
2023-04-18T20:27:08.306Z,99162.81
2023-04-18T20:29:34.744Z,99159.56
2023-04-18T20:32:02.305Z,99157.94
2023-04-18T20:34:30.005Z,99156.31
2023-04-18T20:36:57.930Z,99156.31
2023-04-18T20:39:24.305Z,99159.56
2023-04-18T20:41:51.329Z,99151.19
2023-04-18T20:44:22.104Z,99154.72
2023-04-18T20:46:48.631Z,99162.31
2023-04-18T20:49:15.531Z,99153.63
2023-04-18T20:51:42.216Z,99161.78
2023-04-18T20:54:08.690Z,99172.91
2023-04-18T20:56:38.115Z,99166.69
2023-04-18T20:59:04.898Z,99162.34
2023-04-18T21:01:31.540Z,99166.69
2023-04-18T21:03:58.306Z,99166.97
2023-04-18T21:06:24.818Z,99161.81
2023-04-18T21:08:51.270Z,99165.59
2023-04-18T21:11:17.786Z,99161.81
2023-04-18T21:13:44.248Z,99155.03
2023-04-18T21:16:11.503Z,99170.22
2023-04-18T21:18:37.950Z,99166.19
2023-04-18T21:21:04.560Z,99172.69
2023-04-18T21:23:31.062Z,99176.22
2023-04-18T21:25:57.561Z,99167.28
2023-04-18T21:28:23.953Z,99165.09
2023-04-18T21:30:50.684Z,99177.59
2023-04-18T21:33:17.111Z,99175.16
2023-04-18T21:35:44.110Z,99170.53
2023-04-18T21:38:10.641Z,99170.53
2023-04-18T21:40:37.515Z,99168.91
2023-04-18T21:43:03.982Z,99171.09
2023-04-18T21:45:30.455Z,99173.28
2023-04-18T21:47:57.009Z,99171.41
2023-04-18T21:50:24.603Z,99171.13
2023-04-18T21:52:51.013Z,99177.94
2023-04-18T21:55:17.987Z,99176.31
2023-04-18T21:57:44.393Z,99171.72
2023-04-18T22:00:12.596Z,99171.72
2023-04-18T22:02:39.093Z,99171.44
2023-04-18T22:05:07.519Z,99177.16
2023-04-18T22:07:40.703Z,99178.25
2023-04-18T22:10:13.401Z,99172.00
2023-04-18T22:12:40.054Z,99176.63
2023-04-18T22:15:07.207Z,99178.00
2023-04-18T22:17:34.785Z,99174.75
2023-04-18T22:20:01.356Z,99175.53
2023-04-18T22:22:27.753Z,99170.69
2023-04-18T22:24:54.141Z,99166.66
2023-04-18T22:27:20.611Z,99169.63
2023-04-18T22:29:47.008Z,99164.19
2023-04-18T22:32:13.344Z,99164.19
2023-04-18T22:34:39.703Z,99173.94
2023-04-18T22:37:06.182Z,99168.53
2023-04-18T22:39:32.606Z,99173.41
2023-04-18T22:41:58.984Z,99171.28
2023-04-18T22:44:25.400Z,99179.41
2023-04-18T22:46:54.507Z,99179.94
2023-04-18T22:49:22.097Z,99182.94
2023-04-18T22:51:48.543Z,99188.66
2023-04-18T22:54:15.263Z,99184.31
2023-04-18T22:56:41.921Z,99177.28
2023-04-18T22:59:08.271Z,99178.34
2023-04-18T23:01:34.657Z,99174.56
2023-04-18T23:04:01.484Z,99178.91
2023-04-18T23:06:28.283Z,99183.50
2023-04-18T23:08:54.669Z,99177.28
2023-04-18T23:11:21.526Z,99174.81
2023-04-18T23:13:47.886Z,99174.81
2023-04-18T23:16:14.346Z,99186.47
2023-04-18T23:18:40.947Z,99176.19
2023-04-18T23:21:07.392Z,99176.75
2023-04-18T23:23:33.860Z,99179.72
2023-04-18T23:26:00.565Z,99183.50
2023-04-18T23:28:27.023Z,99165.91
2023-04-18T23:30:53.497Z,99168.63
2023-04-18T23:33:19.916Z,99171.88
2023-04-18T23:35:46.396Z,99170.25
2023-04-18T23:38:12.899Z,99178.66
2023-04-18T23:40:39.338Z,99173.50
2023-04-18T23:43:07.653Z,99174.88
2023-04-18T23:45:34.039Z,99173.53
2023-04-18T23:48:00.802Z,99170.25
2023-04-18T23:50:27.258Z,99171.34
2023-04-18T23:52:53.966Z,99161.59
2023-04-18T23:55:20.680Z,99168.66
2023-04-18T23:57:47.191Z,99166.75
